Time;durP1;ratioP1;P1;durP2;ratioP2;P2;SDS_P1;SDS_P2;PMS_P1;PMS_P2;Temp;Humidity;BMP_temperature;BMP_pressure;BME280_temperature;BME280_humidity;BME280_pressure;Samples;Min_cycle;Max_cycle;Signal;HPM_P1;HPM_P2
2022/12/30 00:01:05;;;;;;;48.05;31.40;;;16.80;75.20;;;18.04;41.69;98530.72;5027114;28;20041;-77
2022/12/30 00:03:32;;;;;;;51.10;31.40;;;16.70;75.10;;;18.07;41.56;98525.41;5026497;28;20056;-78
2022/12/30 00:05:58;;;;;;;49.22;33.20;;;16.80;75.20;;;18.03;41.70;98523.66;5031447;28;20415;-78
2022/12/30 00:11:08;;;;;;;50.20;31.30;;;16.80;75.20;;;18.04;41.42;98522.50;5047319;28;20047;-77
2022/12/30 00:34:27;;;;;;;45.00;31.55;;;16.70;75.10;;;17.93;41.54;98528.34;5041324;28;20439;-77
2022/12/30 00:36:53;;;;;;;54.13;32.85;;;16.70;75.10;;;17.93;41.55;98525.59;5021258;28;20063;-78
2022/12/30 00:39:19;;;;;;;51.00;32.00;;;16.60;75.00;;;17.91;41.39;98522.41;5016704;28;20595;-77
2022/12/30 00:44:30;;;;;;;53.10;34.33;;;16.60;75.00;;;17.95;41.53;98522.53;5036760;28;20119;-78
2022/12/30 00:46:56;;;;;;;56.25;34.33;;;16.60;75.00;;;17.92;41.38;98524.00;5031677;28;20052;-77
2022/12/30 00:57:37;;;;;;;54.47;33.50;;;16.70;75.00;;;17.88;41.25;98517.56;5049525;28;20045;-78
2022/12/30 01:00:06;;;;;;;49.22;32.22;;;16.60;74.80;;;17.87;41.24;98515.97;5047835;28;20036;-78
2022/12/30 01:02:32;;;;;;;48.85;32.75;;;16.70;75.00;;;17.89;41.36;98512.91;5044929;28;20051;-78
2022/12/30 01:04:58;;;;;;;53.40;33.50;;;16.70;75.60;;;17.89;41.25;98510.94;5047590;28;20047;-78
2022/12/30 01:07:28;;;;;;;52.38;33.97;;;16.60;75.00;;;17.90;41.37;98498.03;5029880;28;20116;-77
2022/12/30 01:09:55;;;;;;;53.03;31.88;;;16.60;75.00;;;17.87;41.17;98498.69;5015295;28;20047;-78
2022/12/30 01:12:21;;;;;;;51.88;32.75;;;16.60;75.00;;;17.87;41.44;98507.72;5011005;28;20061;-77
2022/12/30 01:14:50;;;;;;;44.13;32.17;;;16.60;75.00;;;17.88;41.65;98492.88;5012785;28;20091;-77
2022/12/30 01:17:24;;;;;;;53.53;33.85;;;16.60;75.00;;;17.92;41.56;98488.34;5018324;28;20037;-77
2022/12/30 01:19:50;;;;;;;54.13;33.78;;;16.60;75.00;;;17.86;41.38;98503.38;5048356;28;20504;-78
2022/12/30 01:22:16;;;;;;;52.58;32.45;;;16.60;75.00;;;17.86;41.53;98497.06;5029842;28;20049;-77
2022/12/30 01:24:42;;;;;;;52.97;34.10;;;16.60;75.00;;;17.85;41.45;98503.69;5014067;28;20041;-78
2022/12/30 01:27:09;;;;;;;59.20;35.78;;;16.60;75.00;;;17.86;41.53;98495.16;5029213;28;20535;-78
2022/12/30 01:29:39;;;;;;;52.17;34.50;;;16.60;75.00;;;17.90;41.75;98498.03;5046119;28;20423;-78
2022/12/30 01:32:09;;;;;;;48.87;33.33;;;16.60;75.00;;;17.83;41.74;98498.53;5030623;28;20101;-77
2022/12/30 01:34:35;;;;;;;53.40;34.20;;;16.60;75.00;;;17.87;41.67;98495.97;5015936;28;20040;-77
2022/12/30 01:37:01;;;;;;;47.05;31.67;;;16.60;75.00;;;17.84;41.32;98497.41;5013613;28;20036;-77
2022/12/30 01:39:27;;;;;;;55.58;35.08;;;16.60;75.00;;;17.85;41.51;98493.53;5028835;28;20586;-78
2022/12/30 01:41:54;;;;;;;54.17;34.85;;;16.60;75.00;;;17.83;41.24;98493.03;5047134;28;20037;-78
2022/12/30 01:45:00;;;;;;;53.40;34.33;;;16.60;75.00;;;17.87;41.79;98498.69;5030746;28;20763;-77
2022/12/30 01:48:25;;;;;;;51.70;34.38;;;16.60;75.20;;;17.92;41.83;98488.34;4986561;28;20048;-78
2022/12/30 01:51:02;;;;;;;50.90;34.17;;;16.60;75.20;;;17.87;41.65;98487.72;4983519;28;20488;-77
2022/12/30 01:53:30;;;;;;;52.78;34.13;;;16.60;75.00;;;17.81;41.63;98481.63;5030923;28;20985;-77
2022/12/30 01:55:59;;;;;;;54.33;35.78;;;16.60;75.00;;;17.83;41.46;98489.50;5032720;28;20063;-77
2022/12/30 01:58:49;;;;;;;53.60;34.08;;;16.60;75.00;;;17.79;41.80;98486.59;5031802;28;20037;-77
2022/12/30 02:01:15;;;;;;;57.38;33.88;;;16.60;75.70;;;17.81;41.83;98487.09;5045774;28;20040;-78
2022/12/30 02:03:49;;;;;;;55.63;33.30;;;16.50;75.20;;;17.89;41.96;98490.94;5030869;28;20068;-77
2022/12/30 02:06:19;;;;;;;56.47;34.90;;;16.60;75.40;;;17.82;41.52;98488.72;5003279;28;20115;-77
2022/12/30 02:08:45;;;;;;;47.85;33.58;;;16.50;75.00;;;17.76;41.58;98495.50;5031024;28;20041;-77
2022/12/30 02:11:11;;;;;;;56.35;34.72;;;16.50;74.80;;;17.77;41.76;98489.66;5044590;28;20036;-77
2022/12/30 02:13:38;;;;;;;54.10;34.25;;;16.50;74.80;;;17.82;41.27;98485.16;5043440;28;20040;-77
2022/12/30 02:16:14;;;;;;;45.97;32.03;;;16.50;74.90;;;17.79;41.48;98489.34;5046140;28;20041;-77
2022/12/30 02:19:01;;;;;;;51.35;35.10;;;16.60;75.00;;;17.74;41.50;98489.53;5044764;28;20389;-77
2022/12/30 02:22:03;;;;;;;50.05;33.35;;;16.50;74.80;;;17.74;41.49;98489.53;5046425;28;20052;-77
2022/12/30 02:25:07;;;;;;;54.70;34.55;;;16.40;74.80;;;17.76;41.71;98488.06;5046086;28;20048;-78
2022/12/30 02:28:02;;;;;;;49.13;32.42;;;16.40;74.70;;;17.69;41.66;98484.22;5062729;28;20079;-77
2022/12/30 02:31:08;;;;;;;53.22;32.15;;;16.40;74.70;;;17.79;41.39;98475.63;5034969;28;20045;-78
2022/12/30 02:33:50;;;;;;;50.85;34.15;;;16.50;74.80;;;17.72;41.44;98469.84;5061456;28;20056;-77
2022/12/30 02:37:11;;;;;;;46.78;33.65;;;16.50;74.80;;;17.70;41.52;98480.31;5032597;28;20037;-77
2022/12/30 02:39:43;;;;;;;51.15;34.47;;;16.40;74.70;;;17.71;41.46;98473.72;5039201;28;20056;-78
2022/12/30 02:45:27;;;;;;;49.55;32.90;;;16.50;74.80;;;17.70;41.72;98472.09;5047260;28;20045;-77
2022/12/30 02:48:20;;;;;;;49.60;33.70;;;16.50;74.80;;;17.76;41.58;98476.28;5062864;28;20037;-77
2022/12/30 02:53:34;;;;;;;50.08;32.90;;;16.50;74.80;;;17.73;41.54;98493.38;5034044;28;20036;-77
2022/12/30 02:56:00;;;;;;;55.97;33.72;;;16.40;74.70;;;17.70;41.64;98491.28;5012608;28;20083;-77
2022/12/30 02:58:29;;;;;;;51.38;34.00;;;16.50;74.80;;;17.68;41.34;98486.16;5032394;28;20036;-77
2022/12/30 03:04:26;;;;;;;52.65;33.90;;;16.40;74.70;;;17.68;41.39;98497.13;5058803;28;20552;-77
2022/12/30 03:07:32;;;;;;;51.15;33.53;;;16.40;74.80;;;17.65;41.44;98489.53;5040127;28;20075;-77
2022/12/30 03:13:02;;;;;;;48.95;33.38;;;16.40;74.80;;;17.65;41.64;98488.72;5048308;28;20037;-77
2022/12/30 03:16:10;;;;;;;52.38;34.30;;;16.30;74.60;;;17.67;41.46;98498.25;5033550;28;20041;-78
2022/12/30 03:18:36;;;;;;;52.35;34.60;;;16.30;74.70;;;17.67;41.15;98491.97;4986401;28;20426;-77
2022/12/30 03:21:03;;;;;;;51.25;32.53;;;16.40;74.70;;;17.66;41.38;98495.84;5013692;28;20044;-77
2022/12/30 03:28:58;;;;;;;52.03;34.85;;;16.40;74.50;;;17.66;41.41;98498.59;5017381;28;20044;-77
2022/12/30 03:31:25;;;;;;;52.75;33.92;;;16.40;74.60;;;17.69;41.35;98508.91;4998506;28;20066;-78
2022/12/30 03:33:51;;;;;;;54.65;33.17;;;16.40;74.70;;;17.67;41.59;98502.94;5039649;28;20047;-77
2022/12/30 03:36:28;;;;;;;52.72;34.40;;;16.40;74.80;;;17.64;41.55;98511.81;5044330;28;20419;-78
2022/12/30 03:39:02;;;;;;;50.13;34.78;;;16.40;74.70;;;17.62;41.49;98511.34;5014197;28;20431;-78
2022/12/30 03:41:28;;;;;;;52.28;35.28;;;16.30;74.60;;;17.61;41.31;98507.78;5019907;28;20092;-78
2022/12/30 03:43:54;;;;;;;48.25;36.08;;;16.40;74.70;;;17.66;41.41;98515.03;5012423;28;20056;-77
2022/12/30 03:46:25;;;;;;;51.78;32.85;;;16.40;74.50;;;17.70;41.33;98522.28;5045422;28;20050;-77
2022/12/30 03:48:51;;;;;;;54.83;33.83;;;16.50;75.60;;;17.73;41.45;98520.81;5049372;28;20044;-77
2022/12/30 03:51:17;;;;;;;53.50;34.10;;;16.40;74.70;;;17.70;41.39;98532.44;5046084;28;20425;-77
2022/12/30 03:53:43;;;;;;;56.58;36.17;;;16.40;74.70;;;17.63;41.38;98537.63;5031434;28;20062;-78
2022/12/30 03:56:10;;;;;;;52.88;34.30;;;16.40;74.70;;;17.63;41.53;98532.13;5031341;28;20047;-77
2022/12/30 03:58:36;;;;;;;51.72;33.45;;;16.40;74.70;;;17.63;41.24;98537.63;5027829;28;20063;-77
2022/12/30 04:01:02;;;;;;;52.65;35.28;;;16.30;74.60;;;17.58;41.32;98542.16;5027986;28;20068;-77
2022/12/30 04:03:28;;;;;;;49.75;34.83;;;16.30;74.60;;;17.60;41.57;98546.50;5030314;28;20131;-77
2022/12/30 04:05:55;;;;;;;51.42;34.42;;;16.30;75.50;;;17.61;41.33;98554.41;5045696;28;20044;-77
2022/12/30 04:08:22;;;;;;;50.67;33.47;;;16.30;74.60;;;17.64;41.40;98539.25;5033126;28;20496;-77
2022/12/30 04:10:48;;;;;;;50.25;34.00;;;16.40;74.80;;;17.58;41.45;98555.88;5029731;28;20037;-78
2022/12/30 04:13:14;;;;;;;51.42;34.22;;;16.40;74.70;;;17.57;41.42;98556.19;5030216;28;20036;-77
2022/12/30 04:15:41;;;;;;;47.47;32.45;;;16.30;74.50;;;17.61;41.24;98557.16;5045044;28;20573;-77
2022/12/30 04:18:06;;;;;;;46.75;33.08;;;16.30;74.40;;;17.61;41.19;98559.09;5048529;28;20032;-77
2022/12/30 04:20:33;;;;;;;52.17;33.10;;;16.40;74.40;;;17.63;41.20;98560.38;5046790;28;20432;-78
2022/12/30 04:22:59;;;;;;;49.10;33.60;;;16.30;74.30;;;17.58;41.17;98566.03;5061331;28;20091;-77
2022/12/30 04:25:26;;;;;;;54.95;32.45;;;16.30;74.50;;;17.59;41.16;98564.91;5049827;28;20135;-78
2022/12/30 04:27:52;;;;;;;49.13;31.27;;;16.30;74.40;;;17.58;41.12;98575.06;5032921;28;20112;-77
2022/12/30 04:30:18;;;;;;;49.10;32.70;;;16.30;74.50;;;17.56;41.38;98579.28;5038885;28;20064;-77
2022/12/30 04:32:44;;;;;;;49.53;31.08;;;16.30;74.60;;;17.58;41.27;98580.56;5017598;28;20064;-77
2022/12/30 04:35:11;;;;;;;49.20;33.88;;;16.30;74.50;;;17.56;41.00;98577.31;5030376;28;20153;-77
2022/12/30 04:37:37;;;;;;;51.67;33.17;;;16.30;74.50;;;17.66;41.10;98578.13;5015317;28;20045;-77
2022/12/30 04:40:03;;;;;;;54.75;33.28;;;16.40;74.70;;;17.66;41.35;98591.84;5014547;28;20033;-77
2022/12/30 04:42:29;;;;;;;49.97;33.13;;;16.40;74.70;;;17.60;41.45;98593.13;5015848;28;20163;-78
2022/12/30 04:44:56;;;;;;;49.55;33.25;;;16.30;74.60;;;17.55;41.21;98594.09;5036952;28;20280;-78
2022/12/30 04:47:22;;;;;;;51.63;32.83;;;16.30;74.60;;;17.56;41.10;98604.75;5030652;28;20040;-78
2022/12/30 04:49:48;;;;;;;46.83;31.58;;;16.30;74.50;;;17.57;41.06;98606.34;5020471;28;20502;-78
2022/12/30 04:52:14;;;;;;;49.17;32.10;;;16.30;74.40;;;17.55;41.12;98605.91;5029487;28;20037;-77
2022/12/30 04:54:40;;;;;;;45.70;30.88;;;16.20;74.50;;;17.54;41.05;98604.28;5033034;28;20099;-77
2022/12/30 04:57:06;;;;;;;49.88;32.97;;;16.20;74.50;;;17.53;41.17;98613.63;5032401;28;20044;-78
2022/12/30 04:59:32;;;;;;;50.45;32.03;;;16.20;74.60;;;17.52;40.96;98605.72;5028415;28;20049;-77
2022/12/30 05:01:58;;;;;;;45.58;31.05;;;16.20;74.40;;;17.54;40.88;98617.97;5048227;28;20043;-77
2022/12/30 05:04:25;;;;;;;44.38;30.25;;;16.20;74.40;;;17.54;41.00;98622.66;5034882;28;20098;-77
2022/12/30 05:06:50;;;;;;;44.28;31.17;;;16.20;74.40;;;17.65;41.00;98623.94;5062643;28;20478;-78
2022/12/30 05:09:17;;;;;;;50.33;31.95;;;16.20;74.50;;;17.66;41.23;98635.72;5030356;28;20094;-77
2022/12/30 05:11:43;;;;;;;51.42;33.40;;;16.30;74.60;;;17.56;41.28;98637.66;5047680;28;20048;-77
2022/12/30 05:14:09;;;;;;;50.72;32.08;;;16.30;74.60;;;17.52;41.42;98639.44;5015934;28;20048;-77
2022/12/30 05:16:35;;;;;;;47.55;32.85;;;16.30;74.30;;;17.53;41.19;98648.50;5048357;28;20755;-78
2022/12/30 05:19:01;;;;;;;46.30;31.05;;;16.30;74.40;;;17.57;40.82;98644.75;5045534;28;20037;-77
2022/12/30 05:21:27;;;;;;;47.25;31.88;;;16.20;74.40;;;17.58;40.97;98651.06;5033674;28;20044;-78
2022/12/30 05:26:39;;;;;;;42.97;30.30;;;16.30;74.10;;;17.53;41.03;98660.25;5050371;28;20045;-77
2022/12/30 05:29:05;;;;;;;47.25;28.95;;;16.30;74.10;;;17.51;40.93;98659.75;5036149;28;20497;-77
2022/12/30 05:31:31;;;;;;;49.08;31.15;;;16.20;74.20;;;17.53;40.92;98660.25;5046131;28;20123;-78
2022/12/30 05:33:57;;;;;;;42.80;29.00;;;16.20;74.30;;;17.52;41.19;98658.63;5023139;28;20040;-77
2022/12/30 05:36:23;;;;;;;47.45;29.33;;;16.30;74.60;;;17.60;41.31;98657.00;5047501;28;20767;-77
2022/12/30 05:38:50;;;;;;;46.75;29.30;;;16.30;74.60;;;17.62;41.10;98648.47;5034141;28;20045;-77
2022/12/30 05:41:15;;;;;;;41.28;29.33;;;16.30;74.60;;;17.54;41.00;98658.31;5028302;28;20086;-77
2022/12/30 05:43:42;;;;;;;45.72;30.23;;;16.30;74.10;;;17.52;41.13;98658.63;5028862;28;20052;-77
2022/12/30 05:46:08;;;;;;;39.97;29.23;;;16.30;74.40;;;17.53;41.05;98668.47;5030401;28;20041;-77
2022/12/30 05:48:34;;;;;;;44.30;28.98;;;16.20;74.40;;;17.54;40.73;98677.50;5049060;28;20048;-77
2022/12/30 05:51:00;;;;;;;43.70;28.10;;;16.20;74.40;;;17.51;41.20;98684.44;5028351;28;20044;-77
2022/12/30 05:53:26;;;;;;;47.83;28.90;;;16.20;74.30;;;17.50;40.89;98688.34;5031809;28;20496;-76
2022/12/30 05:55:52;;;;;;;42.47;28.15;;;16.20;74.30;;;17.55;41.06;98687.34;5043789;28;20048;-77
2022/12/30 05:58:19;;;;;;;42.63;28.98;;;16.20;74.10;;;17.50;41.07;98691.06;5030319;28;20047;-76
2022/12/30 06:00:45;;;;;;;43.78;28.20;;;16.20;74.10;;;17.52;40.95;98694.28;5044283;28;20076;-76
2022/12/30 06:03:11;;;;;;;45.15;27.95;;;16.20;74.00;;;17.51;40.77;98689.94;5044364;28;20877;-76
2022/12/30 06:05:37;;;;;;;43.50;29.45;;;16.30;74.00;;;17.50;41.11;98704.78;5001371;28;20041;-77
2022/12/30 06:08:04;;;;;;;41.50;27.45;;;16.20;74.30;;;17.57;41.27;98702.34;5041322;28;20057;-77
2022/12/30 06:10:30;;;;;;;43.22;30.02;;;16.30;74.50;;;17.62;41.07;98706.06;5062961;28;20177;-77
2022/12/30 06:12:56;;;;;;;40.53;25.83;;;16.30;74.50;;;17.52;41.07;98708.00;5044571;28;20041;-76
2022/12/30 06:15:22;;;;;;;46.03;28.40;;;16.40;73.90;;;17.51;41.17;98705.59;5049367;28;20121;-77
2022/12/30 06:17:48;;;;;;;45.42;26.98;;;16.30;73.90;;;17.50;41.15;98718.50;5059274;28;20048;-77
2022/12/30 06:20:14;;;;;;;42.80;27.42;;;16.30;74.10;;;17.49;40.85;98716.88;5046443;28;20044;-77
2022/12/30 06:22:40;;;;;;;40.17;25.77;;;16.30;73.90;;;17.54;41.34;98716.72;5061397;28;20082;-77
2022/12/30 06:25:07;;;;;;;39.45;24.80;;;16.30;74.30;;;17.61;41.10;98727.22;5044786;28;20045;-77
2022/12/30 06:27:33;;;;;;;40.50;27.85;;;16.40;74.40;;;17.55;41.22;98729.31;5030538;28;20049;-77
2022/12/30 06:29:59;;;;;;;37.80;26.55;;;16.40;74.10;;;17.50;41.22;98725.91;5019553;28;20048;-77
2022/12/30 06:32:25;;;;;;;40.58;26.02;;;16.30;73.80;;;17.48;41.01;98731.72;5017290;28;20032;-77
2022/12/30 06:34:52;;;;;;;38.03;25.98;;;16.30;73.80;;;17.47;41.33;98738.31;5061660;28;20040;-77
2022/12/30 06:37:18;;;;;;;50.92;27.63;;;16.30;73.90;;;17.45;41.73;98745.25;5042655;28;20041;-77
2022/12/30 06:39:44;;;;;;;37.83;26.75;;;16.20;73.90;;;17.43;41.19;98751.06;5035400;28;20048;-77
2022/12/30 06:42:10;;;;;;;35.28;25.75;;;16.30;74.00;;;17.47;41.00;98753.97;5029180;28;20040;-77
2022/12/30 06:44:36;;;;;;;40.10;26.48;;;16.30;74.00;;;17.50;40.96;98758.81;5045981;28;20068;-77
2022/12/30 06:47:02;;;;;;;36.58;25.48;;;16.20;73.90;;;17.50;40.96;98758.81;5046794;28;20629;-77
2022/12/30 06:49:28;;;;;;;38.22;24.15;;;16.30;74.30;;;17.54;41.15;98755.09;5031264;28;20036;-77
2022/12/30 06:51:54;;;;;;;36.67;23.95;;;16.30;74.50;;;17.49;41.30;98760.75;5045337;28;20044;-77
2022/12/30 06:54:20;;;;;;;44.60;25.85;;;16.30;74.60;;;17.48;41.23;98777.53;5015155;28;20037;-77
2022/12/30 06:56:47;;;;;;;38.20;25.73;;;16.30;74.20;;;17.45;41.32;98778.94;5037780;28;20041;-77
2022/12/30 06:59:12;;;;;;;37.60;24.27;;;16.30;74.00;;;17.47;41.05;98779.44;5022383;28;20078;-77
2022/12/30 07:01:39;;;;;;;37.13;24.35;;;16.30;74.20;;;17.45;40.98;98778.94;5028682;28;20047;-77
2022/12/30 07:04:05;;;;;;;32.55;24.50;;;16.30;74.00;;;17.43;41.18;98786.72;5040334;28;20519;-77
2022/12/30 07:06:31;;;;;;;37.03;25.33;;;16.20;73.90;;;17.40;41.00;98779.09;5045178;28;20037;-76
2022/12/30 07:08:57;;;;;;;35.92;24.27;;;16.20;74.00;;;17.42;41.15;98778.78;5041446;28;20070;-77
2022/12/30 07:11:23;;;;;;;35.47;25.45;;;16.20;74.00;;;17.46;41.30;98788.81;5041300;28;20048;-77
2022/12/30 07:13:49;;;;;;;34.38;23.83;;;16.30;73.80;;;17.48;41.12;98792.03;5042954;28;20577;-77
2022/12/30 07:16:15;;;;;;;32.45;21.23;;;16.40;73.70;;;17.47;41.08;98784.94;5056441;28;20040;-77
2022/12/30 07:18:41;;;;;;;35.70;24.27;;;16.30;73.60;;;17.48;41.03;98788.50;5030284;28;20044;-77
2022/12/30 07:21:08;;;;;;;37.60;23.70;;;16.30;73.70;;;17.48;41.16;98794.00;5026225;28;20044;-76
2022/12/30 07:23:34;;;;;;;45.30;25.17;;;16.30;73.90;;;17.59;41.06;98795.28;5038895;28;20058;-77
2022/12/30 07:26:00;;;;;;;35.47;23.75;;;16.30;74.10;;;17.67;40.98;98804.66;5028326;28;20044;-76
2022/12/30 07:28:26;;;;;;;33.45;23.90;;;16.40;74.40;;;17.63;41.04;98814.66;4999159;28;20549;-77
2022/12/30 07:30:52;;;;;;;42.45;25.50;;;16.40;74.20;;;17.56;41.21;98807.72;5007620;28;20496;-78
2022/12/30 07:33:18;;;;;;;34.38;22.20;;;16.40;74.20;;;17.57;41.00;98809.31;4999441;28;20039;-77
2022/12/30 07:35:45;;;;;;;34.88;22.65;;;16.40;74.00;;;17.58;41.24;98816.44;5043133;28;20534;-77
2022/12/30 07:38:10;;;;;;;33.70;22.38;;;16.40;74.00;;;17.64;41.10;98828.06;5058787;28;20041;-76
2022/12/30 07:40:37;;;;;;;32.08;22.23;;;16.40;74.20;;;17.74;41.03;98830.50;5058025;28;20507;-76
2022/12/30 07:43:03;;;;;;;33.83;23.50;;;16.50;74.40;;;17.75;41.03;98828.53;5043323;28;20045;-77
2022/12/30 07:45:30;;;;;;;34.45;21.65;;;16.50;74.40;;;17.68;40.98;98828.22;5046925;28;20048;-76
2022/12/30 07:47:59;;;;;;;35.28;21.90;;;16.50;74.10;;;17.67;41.21;98826.59;5037923;28;20045;-76
2022/12/30 07:50:26;;;;;;;30.20;21.33;;;16.40;74.20;;;17.72;41.04;98823.72;5036119;28;20131;-76
2022/12/30 07:52:52;;;;;;;31.15;21.63;;;16.40;74.30;;;17.77;41.00;98834.53;5013446;28;20502;-76
2022/12/30 07:55:21;;;;;;;34.30;21.75;;;16.40;74.40;;;17.84;41.02;98840.38;5024901;28;20041;-76
2022/12/30 07:57:47;;;;;;;29.52;21.30;;;16.40;74.70;;;17.87;41.12;98845.22;5007476;28;20136;-76
2022/12/30 08:00:13;;;;;;;33.33;21.90;;;16.50;74.70;;;17.87;41.09;98844.44;5028659;28;20507;-76
2022/12/30 08:02:39;;;;;;;34.15;21.35;;;16.50;74.60;;;17.87;41.08;98858.94;5038124;28;20110;-76
2022/12/30 08:05:07;;;;;;;32.70;21.83;;;16.50;74.30;;;17.90;40.86;98854.75;5039086;28;20040;-76
2022/12/30 08:07:34;;;;;;;33.35;22.23;;;16.50;74.30;;;17.90;40.72;98858.31;5023026;28;20100;-76
2022/12/30 08:10:01;;;;;;;32.00;22.90;;;16.40;74.70;;;17.89;40.87;98862.19;5024882;28;20041;-76
2022/12/30 08:12:26;;;;;;;30.55;20.80;;;16.40;74.70;;;17.90;41.10;98858.31;5010871;28;20041;-76
2022/12/30 08:14:53;;;;;;;35.88;22.15;;;16.40;74.70;;;17.90;40.62;98866.53;5011872;28;20045;-77
2022/12/30 08:17:20;;;;;;;32.28;21.45;;;16.40;74.70;;;17.91;40.83;98876.41;5042028;28;20052;-76
2022/12/30 08:19:47;;;;;;;31.65;20.33;;;16.40;74.70;;;17.94;40.72;98873.00;5025438;28;20455;-76
2022/12/30 08:22:13;;;;;;;27.80;20.10;;;16.40;74.70;;;17.93;40.97;98874.13;5013264;28;20094;-76
2022/12/30 08:24:39;;;;;;;34.45;22.75;;;16.40;74.80;;;17.95;41.03;98871.88;5024263;28;20079;-76
2022/12/30 08:27:05;;;;;;;28.15;19.85;;;16.40;74.80;;;17.96;40.72;98876.25;5009629;28;20040;-76
2022/12/30 08:29:32;;;;;;;29.70;21.02;;;16.40;74.70;;;18.02;40.72;98882.38;5026569;28;20035;-76
2022/12/30 08:31:58;;;;;;;29.25;20.40;;;16.40;74.70;;;18.04;41.26;98882.88;5030526;28;20036;-76
2022/12/30 08:34:25;;;;;;;31.33;20.17;;;16.40;75.50;;;18.09;41.28;98890.13;5016879;28;20036;-76
2022/12/30 08:36:51;;;;;;;27.83;19.45;;;16.40;75.70;;;18.09;41.23;98884.63;4997822;28;20866;-76
2022/12/30 08:39:17;;;;;;;31.27;19.80;;;16.50;75.70;;;18.14;41.07;98895.44;5029505;28;20033;-76
2022/12/30 08:41:45;;;;;;;28.35;20.20;;;16.50;75.30;;;18.13;41.00;98891.91;4994332;28;20052;-77
2022/12/30 08:44:11;;;;;;;32.58;21.83;;;16.50;75.20;;;18.13;40.95;98899.34;5033578;28;20067;-76
2022/12/30 08:46:41;;;;;;;29.42;19.10;;;16.50;75.00;;;18.12;41.13;98911.47;5046318;28;20044;-77
2022/12/30 08:49:09;;;;;;;28.98;19.02;;;16.50;74.80;;;18.14;40.88;98911.94;5013169;28;20620;-77
2022/12/30 08:51:36;;;;;;;34.00;20.83;;;16.60;75.00;;;18.20;40.72;98905.16;5027184;28;20049;-77
2022/12/30 08:54:02;;;;;;;34.42;20.42;;;16.50;74.80;;;18.17;40.77;98923.09;5042275;28;20043;-77
2022/12/30 08:56:31;;;;;;;28.38;19.20;;;16.60;75.00;;;18.17;40.48;98920.34;5031735;28;20041;-77
2022/12/30 08:58:58;;;;;;;28.13;19.73;;;16.60;75.00;;;18.27;40.59;98926.63;5033897;28;20044;-77
2022/12/30 09:01:29;;;;;;;30.15;19.45;;;16.70;75.50;;;18.28;40.74;98931.81;5014563;28;20047;-77
2022/12/30 09:03:56;;;;;;;26.08;18.45;;;16.60;75.00;;;18.30;40.95;98935.06;5029051;28;20191;-77
2022/12/30 09:06:23;;;;;;;22.52;15.68;;;16.60;75.00;;;18.35;40.89;98934.09;5011404;28;20143;-76
2022/12/30 09:08:50;;;;;;;26.48;19.55;;;16.70;75.10;;;18.37;41.04;98927.16;5026054;28;20045;-77
2022/12/30 09:11:23;;;;;;;26.48;18.70;;;16.70;75.70;;;18.39;40.68;98924.06;5011804;28;20064;-78
2022/12/30 09:13:50;;;;;;;29.27;18.17;;;16.70;75.10;;;18.40;40.69;98934.75;5029218;28;20076;-76
2022/12/30 09:16:18;;;;;;;25.35;18.20;;;16.70;75.10;;;18.48;40.73;98935.06;5028254;28;20044;-76
2022/12/30 09:18:45;;;;;;;25.38;17.75;;;16.70;75.10;;;18.51;40.46;98923.44;5026253;28;20037;-76
2022/12/30 09:21:11;;;;;;;24.65;17.20;;;16.80;75.20;;;18.51;40.56;98928.94;5025334;28;20527;-76
2022/12/30 09:23:38;;;;;;;26.92;17.88;;;16.80;75.20;;;18.53;41.15;98921.19;5036722;28;20654;-77
2022/12/30 09:26:05;;;;;;;26.98;17.42;;;16.80;75.60;;;18.71;43.20;98927.47;5029919;28;20362;-76
2022/12/30 09:28:32;;;;;;;30.45;17.58;;;16.90;79.80;;;18.75;42.49;98926.53;5015263;28;20069;-76
2022/12/30 09:31:01;;;;;;;26.55;17.98;;;17.00;78.10;;;18.72;42.11;98924.38;5015728;28;20037;-76
2022/12/30 09:33:27;;;;;;;28.42;17.98;;;17.00;77.70;;;18.71;42.08;98917.28;5041679;28;20064;-76
2022/12/30 09:35:53;;;;;;;35.83;18.25;;;17.00;77.70;;;18.69;42.03;98919.53;5051693;28;20056;-76
2022/12/30 09:38:20;;;;;;;29.10;18.73;;;17.00;77.70;;;18.75;41.91;98921.03;5044860;28;20090;-77
2022/12/30 09:41:19;;;;;;;24.80;16.75;;;17.10;77.60;;;18.75;41.78;98917.44;5030586;28;20040;-77
2022/12/30 09:44:15;;;;;;;23.08;17.52;;;17.10;77.50;;;18.73;41.70;98917.78;5044948;28;20094;-77
2022/12/30 09:47:18;;;;;;;21.75;15.18;;;17.00;77.00;;;18.69;41.75;98919.53;5023611;28;20077;-77
2022/12/30 09:50:15;;;;;;;25.33;16.35;;;17.10;76.70;;;18.71;41.55;98920.03;5014102;28;20113;-77
2022/12/30 09:52:59;;;;;;;23.23;16.40;;;17.10;76.50;;;18.71;41.77;98922.78;5044364;28;20127;-77
2022/12/30 09:55:28;;;;;;;23.00;16.90;;;17.10;76.80;;;18.74;41.72;98927.63;5023477;28;20040;-76
2022/12/30 09:58:00;;;;;;;25.42;16.38;;;17.10;76.50;;;18.75;41.56;98921.03;5027440;28;20048;-76
2022/12/30 10:00:27;;;;;;;;;;;17.10;76.30;;;18.73;41.56;98926.03;5014695;28;20059;-77
2022/12/30 10:03:18;;;;;;;24.58;16.30;;;17.10;76.20;;;18.79;41.29;98919.25;5046833;28;19924;-76
2022/12/30 10:06:12;;;;;;;19.73;14.98;;;17.20;75.90;;;18.80;41.09;98914.53;5007162;28;20124;-75
2022/12/30 10:09:08;;;;;;;25.77;16.98;;;17.20;76.00;;;18.81;41.22;98910.69;5058399;28;20086;-75
2022/12/30 10:12:01;;;;;;;24.50;15.75;;;17.20;76.10;;;18.77;41.09;98907.75;5057968;28;20119;-75
2022/12/30 10:15:14;;;;;;;21.73;15.20;;;17.30;75.70;;;18.84;41.54;98916.31;5049688;28;20111;-75
2022/12/30 10:18:25;;;;;;;22.08;14.77;;;17.30;75.80;;;18.82;41.34;98910.34;5059914;28;20043;-75
2022/12/30 10:21:20;;;;;;;24.15;14.90;;;17.20;75.60;;;18.79;41.49;98913.75;5047674;28;20088;-75
2022/12/30 10:24:10;;;;;;;27.45;16.67;;;17.30;75.90;;;18.84;41.40;98912.78;5040135;28;20043;-75
2022/12/30 10:26:49;;;;;;;22.17;14.02;;;17.20;76.90;;;18.92;41.28;98916.66;5049485;28;20041;-75
2022/12/30 10:29:24;;;;;;;20.35;14.82;;;17.30;76.10;;;18.92;41.14;98919.41;5029811;28;20036;-75
2022/12/30 10:31:50;;;;;;;24.88;14.18;;;17.30;75.70;;;18.88;41.04;98916.50;5041273;28;20053;-75
2022/12/30 10:34:28;;;;;;;20.40;14.50;;;17.30;75.80;;;18.92;41.03;98922.16;5010133;28;20552;-76
2022/12/30 10:37:11;;;;;;;22.00;14.90;;;17.40;75.90;;;18.91;40.95;98920.53;5043009;28;20044;-76
2022/12/30 10:39:48;;;;;;;19.48;13.68;;;17.40;75.80;;;18.94;40.93;98920.69;5012273;28;20049;-76
2022/12/30 10:42:42;;;;;;;18.77;13.32;;;17.40;75.80;;;18.93;40.85;98921.00;5026253;28;20037;-76
2022/12/30 10:45:41;;;;;;;22.15;13.93;;;17.40;75.80;;;18.94;40.87;98920.69;5045963;28;20048;-76
2022/12/30 10:48:38;;;;;;;19.42;14.18;;;17.40;75.50;;;18.97;40.90;98921.97;5062238;28;20041;-75
2022/12/30 10:51:07;;;;;;;22.98;15.50;;;17.40;75.30;;;18.98;40.80;98923.56;5061598;28;20043;-77
2022/12/30 10:53:34;;;;;;;20.00;13.65;;;17.50;75.30;;;18.96;41.03;98914.88;5026615;28;20040;-78
2022/12/30 10:56:02;;;;;;;21.52;13.55;;;17.50;75.60;;;18.99;40.99;98911.47;5007502;28;20047;-78
2022/12/30 10:58:40;;;;;;;21.30;12.32;;;17.50;75.80;;;19.00;40.92;98907.56;5028690;28;20064;-78
2022/12/30 11:01:24;;;;;;;18.45;13.57;;;17.50;75.60;;;19.03;40.95;98917.91;5030857;28;20049;-78
2022/12/30 11:03:53;;;;;;;18.58;13.35;;;17.50;75.50;;;19.08;40.68;98914.97;5031101;28;20072;-78
2022/12/30 11:06:24;;;;;;;17.90;12.40;;;17.60;75.20;;;19.08;40.66;98915.81;5044290;28;20041;-79
2022/12/30 11:08:51;;;;;;;20.00;12.13;;;17.50;75.00;;;19.07;40.66;98916.94;5045212;28;20123;-79
2022/12/30 11:11:18;;;;;;;19.10;12.43;;;17.60;75.00;;;19.05;40.46;98915.63;5027690;28;20106;-78
2022/12/30 11:16:40;;;;;;;16.95;12.20;;;17.60;74.60;;;19.02;40.47;98911.59;5017907;28;20052;-78
2022/12/30 11:19:06;;;;;;;19.10;12.45;;;17.60;74.60;;;19.04;40.52;98914.03;5026964;28;20040;-78